sensor_id;sensor_type;location;lat;lon;timestamp;temperature;humidity
11055;DHT22;5580;50.106;8.702;2022-08-19T00:01:49;24.50;99.90
11055;DHT22;5580;50.106;8.702;2022-08-19T00:04:16;24.40;99.90
11055;DHT22;5580;50.106;8.702;2022-08-19T00:06:44;24.40;99.90
11055;DHT22;5580;50.106;8.702;2022-08-19T00:09:12;24.40;99.90
11055;DHT22;5580;50.106;8.702;2022-08-19T00:11:38;24.40;99.90
11055;DHT22;5580;50.106;8.702;2022-08-19T00:14:06;24.40;99.90
11055;DHT22;5580;50.106;8.702;2022-08-19T00:16:32;24.40;99.90
11055;DHT22;5580;50.106;8.702;2022-08-19T00:18:58;24.40;99.90
11055;DHT22;5580;50.106;8.702;2022-08-19T00:21:25;24.40;99.90
11055;DHT22;5580;50.106;8.702;2022-08-19T00:23:52;24.40;99.90
11055;DHT22;5580;50.106;8.702;2022-08-19T00:26:19;24.40;99.90
11055;DHT22;5580;50.106;8.702;2022-08-19T00:28:44;24.30;99.90
11055;DHT22;5580;50.106;8.702;2022-08-19T00:31:10;24.30;99.90
11055;DHT22;5580;50.106;8.702;2022-08-19T00:33:36;24.30;99.90
11055;DHT22;5580;50.106;8.702;2022-08-19T00:36:04;24.30;99.90
11055;DHT22;5580;50.106;8.702;2022-08-19T00:38:32;24.30;99.90
11055;DHT22;5580;50.106;8.702;2022-08-19T00:40:57;24.30;99.90
11055;DHT22;5580;50.106;8.702;2022-08-19T00:43:25;24.30;99.90
11055;DHT22;5580;50.106;8.702;2022-08-19T00:45:52;24.30;99.90
11055;DHT22;5580;50.106;8.702;2022-08-19T00:48:18;24.30;99.90
11055;DHT22;5580;50.106;8.702;2022-08-19T00:50:45;24.30;99.90
11055;DHT22;5580;50.106;8.702;2022-08-19T00:53:13;24.30;99.90
11055;DHT22;5580;50.106;8.702;2022-08-19T00:55:40;24.30;99.90
11055;DHT22;5580;50.106;8.702;2022-08-19T00:58:11;24.30;99.90
11055;DHT22;5580;50.106;8.702;2022-08-19T01:00:37;24.30;99.90
11055;DHT22;5580;50.106;8.702;2022-08-19T01:03:07;24.20;99.90
11055;DHT22;5580;50.106;8.702;2022-08-19T01:05:35;24.30;99.90
11055;DHT22;5580;50.106;8.702;2022-08-19T01:08:03;24.30;99.90
11055;DHT22;5580;50.106;8.702;2022-08-19T01:10:32;24.30;99.90
11055;DHT22;5580;50.106;8.702;2022-08-19T01:13:02;24.20;99.90
11055;DHT22;5580;50.106;8.702;2022-08-19T01:15:32;24.30;99.90
11055;DHT22;5580;50.106;8.702;2022-08-19T01:18:03;24.30;99.90
11055;DHT22;5580;50.106;8.702;2022-08-19T01:20:30;24.20;99.90
11055;DHT22;5580;50.106;8.702;2022-08-19T01:22:58;24.20;99.90
11055;DHT22;5580;50.106;8.702;2022-08-19T01:25:31;24.20;99.90
11055;DHT22;5580;50.106;8.702;2022-08-19T01:27:57;24.20;99.90
11055;DHT22;5580;50.106;8.702;2022-08-19T01:30:29;24.20;99.90
11055;DHT22;5580;50.106;8.702;2022-08-19T01:32:56;24.20;99.90
11055;DHT22;5580;50.106;8.702;2022-08-19T01:35:23;24.20;99.90
11055;DHT22;5580;50.106;8.702;2022-08-19T01:38:04;24.20;99.90
11055;DHT22;5580;50.106;8.702;2022-08-19T01:40:35;24.20;99.90
11055;DHT22;5580;50.106;8.702;2022-08-19T01:43:02;24.10;99.90
11055;DHT22;5580;50.106;8.702;2022-08-19T01:45:30;24.10;99.90
11055;DHT22;5580;50.106;8.702;2022-08-19T01:47:56;24.10;99.90
11055;DHT22;5580;50.106;8.702;2022-08-19T01:50:22;24.10;99.90
11055;DHT22;5580;50.106;8.702;2022-08-19T01:52:48;24.10;99.90
11055;DHT22;5580;50.106;8.702;2022-08-19T01:55:17;24.20;99.90
11055;DHT22;5580;50.106;8.702;2022-08-19T01:57:47;24.20;99.90
11055;DHT22;5580;50.106;8.702;2022-08-19T02:00:16;24.20;99.90
11055;DHT22;5580;50.106;8.702;2022-08-19T02:02:42;24.20;99.90
11055;DHT22;5580;50.106;8.702;2022-08-19T02:05:08;24.20;99.90
11055;DHT22;5580;50.106;8.702;2022-08-19T02:07:39;24.10;99.90
11055;DHT22;5580;50.106;8.702;2022-08-19T02:10:08;24.10;99.90
11055;DHT22;5580;50.106;8.702;2022-08-19T02:12:34;24.10;99.90
11055;DHT22;5580;50.106;8.702;2022-08-19T02:15:01;24.10;99.90
11055;DHT22;5580;50.106;8.702;2022-08-19T02:17:28;24.10;99.90
11055;DHT22;5580;50.106;8.702;2022-08-19T02:19:55;24.10;99.90
11055;DHT22;5580;50.106;8.702;2022-08-19T02:22:22;24.10;99.90
11055;DHT22;5580;50.106;8.702;2022-08-19T02:24:48;24.10;99.90
11055;DHT22;5580;50.106;8.702;2022-08-19T02:27:14;24.10;99.90
11055;DHT22;5580;50.106;8.702;2022-08-19T02:29:40;24.00;99.90
11055;DHT22;5580;50.106;8.702;2022-08-19T02:32:06;24.00;99.90
11055;DHT22;5580;50.106;8.702;2022-08-19T02:34:32;24.00;99.90
11055;DHT22;5580;50.106;8.702;2022-08-19T02:36:58;24.00;99.90
11055;DHT22;5580;50.106;8.702;2022-08-19T02:39:24;24.00;99.90
11055;DHT22;5580;50.106;8.702;2022-08-19T02:41:50;24.00;99.90
11055;DHT22;5580;50.106;8.702;2022-08-19T02:44:17;24.00;99.90
11055;DHT22;5580;50.106;8.702;2022-08-19T02:46:45;24.00;99.90
11055;DHT22;5580;50.106;8.702;2022-08-19T02:49:12;24.00;99.90
11055;DHT22;5580;50.106;8.702;2022-08-19T02:51:40;24.00;99.90
11055;DHT22;5580;50.106;8.702;2022-08-19T02:54:09;24.00;99.90
11055;DHT22;5580;50.106;8.702;2022-08-19T02:56:37;24.00;99.90
11055;DHT22;5580;50.106;8.702;2022-08-19T02:59:04;24.00;99.90
11055;DHT22;5580;50.106;8.702;2022-08-19T03:01:34;24.00;99.90
11055;DHT22;5580;50.106;8.702;2022-08-19T03:04:02;24.00;99.90
11055;DHT22;5580;50.106;8.702;2022-08-19T03:06:28;23.90;99.90
11055;DHT22;5580;50.106;8.702;2022-08-19T03:08:55;23.90;99.90
11055;DHT22;5580;50.106;8.702;2022-08-19T03:11:26;23.90;99.90
11055;DHT22;5580;50.106;8.702;2022-08-19T03:13:52;24.00;99.90
11055;DHT22;5580;50.106;8.702;2022-08-19T03:16:21;23.90;99.90
11055;DHT22;5580;50.106;8.702;2022-08-19T03:18:47;24.00;99.90
11055;DHT22;5580;50.106;8.702;2022-08-19T03:21:17;23.90;99.90
11055;DHT22;5580;50.106;8.702;2022-08-19T03:23:44;24.00;99.90
11055;DHT22;5580;50.106;8.702;2022-08-19T03:26:10;23.90;99.90
11055;DHT22;5580;50.106;8.702;2022-08-19T03:28:35;23.90;99.90
11055;DHT22;5580;50.106;8.702;2022-08-19T03:31:07;23.90;99.90
11055;DHT22;5580;50.106;8.702;2022-08-19T03:33:34;23.90;99.90
11055;DHT22;5580;50.106;8.702;2022-08-19T03:36:22;23.90;99.90
11055;DHT22;5580;50.106;8.702;2022-08-19T03:38:51;23.90;99.90
11055;DHT22;5580;50.106;8.702;2022-08-19T03:41:20;23.80;99.90
11055;DHT22;5580;50.106;8.702;2022-08-19T03:43:47;23.90;99.90
11055;DHT22;5580;50.106;8.702;2022-08-19T03:46:16;23.90;99.90
11055;DHT22;5580;50.106;8.702;2022-08-19T03:48:43;23.80;99.90
11055;DHT22;5580;50.106;8.702;2022-08-19T03:51:19;23.90;99.90
11055;DHT22;5580;50.106;8.702;2022-08-19T03:53:46;23.90;99.90
11055;DHT22;5580;50.106;8.702;2022-08-19T03:56:13;23.90;99.90
11055;DHT22;5580;50.106;8.702;2022-08-19T03:58:39;23.90;99.90
11055;DHT22;5580;50.106;8.702;2022-08-19T04:01:14;23.90;99.90
11055;DHT22;5580;50.106;8.702;2022-08-19T04:03:40;23.80;99.90
11055;DHT22;5580;50.106;8.702;2022-08-19T04:06:11;23.90;99.90
11055;DHT22;5580;50.106;8.702;2022-08-19T04:08:39;23.80;99.90
11055;DHT22;5580;50.106;8.702;2022-08-19T04:11:19;23.80;99.90
11055;DHT22;5580;50.106;8.702;2022-08-19T04:13:49;23.80;99.90
11055;DHT22;5580;50.106;8.702;2022-08-19T04:16:17;23.70;99.90
11055;DHT22;5580;50.106;8.702;2022-08-19T04:18:45;23.70;99.90
11055;DHT22;5580;50.106;8.702;2022-08-19T04:21:17;23.70;99.90
11055;DHT22;5580;50.106;8.702;2022-08-19T04:23:44;23.70;99.90
11055;DHT22;5580;50.106;8.702;2022-08-19T04:26:14;23.70;99.90
11055;DHT22;5580;50.106;8.702;2022-08-19T04:28:42;23.70;99.90
11055;DHT22;5580;50.106;8.702;2022-08-19T04:31:13;23.70;99.90
11055;DHT22;5580;50.106;8.702;2022-08-19T04:33:41;23.70;99.90
11055;DHT22;5580;50.106;8.702;2022-08-19T04:36:07;23.70;99.90
11055;DHT22;5580;50.106;8.702;2022-08-19T04:38:33;23.70;99.90
11055;DHT22;5580;50.106;8.702;2022-08-19T04:40:58;23.70;99.90
11055;DHT22;5580;50.106;8.702;2022-08-19T04:43:45;23.70;99.90
11055;DHT22;5580;50.106;8.702;2022-08-19T04:46:14;23.70;99.90
11055;DHT22;5580;50.106;8.702;2022-08-19T04:48:40;23.60;99.90
11055;DHT22;5580;50.106;8.702;2022-08-19T04:51:08;23.60;99.90
11055;DHT22;5580;50.106;8.702;2022-08-19T04:53:37;23.60;99.90
11055;DHT22;5580;50.106;8.702;2022-08-19T04:56:21;23.70;99.90
11055;DHT22;5580;50.106;8.702;2022-08-19T04:58:48;23.70;99.90
11055;DHT22;5580;50.106;8.702;2022-08-19T05:01:25;23.60;99.90
11055;DHT22;5580;50.106;8.702;2022-08-19T05:03:52;23.70;99.90
11055;DHT22;5580;50.106;8.702;2022-08-19T05:06:19;23.60;99.90
11055;DHT22;5580;50.106;8.702;2022-08-19T05:08:46;23.60;99.90
11055;DHT22;5580;50.106;8.702;2022-08-19T05:11:21;23.70;99.90
11055;DHT22;5580;50.106;8.702;2022-08-19T05:13:47;23.60;99.90
11055;DHT22;5580;50.106;8.702;2022-08-19T05:16:19;23.70;99.90
11055;DHT22;5580;50.106;8.702;2022-08-19T05:18:46;23.70;99.90
11055;DHT22;5580;50.106;8.702;2022-08-19T05:21:31;23.70;99.90
11055;DHT22;5580;50.106;8.702;2022-08-19T05:24:16;23.60;99.90
11055;DHT22;5580;50.106;8.702;2022-08-19T05:26:45;23.60;99.90
11055;DHT22;5580;50.106;8.702;2022-08-19T05:29:13;23.60;99.90
11055;DHT22;5580;50.106;8.702;2022-08-19T05:31:39;23.70;99.90
11055;DHT22;5580;50.106;8.702;2022-08-19T05:34:05;23.70;99.90
11055;DHT22;5580;50.106;8.702;2022-08-19T05:36:35;23.70;99.90
11055;DHT22;5580;50.106;8.702;2022-08-19T05:39:02;23.70;99.90
11055;DHT22;5580;50.106;8.702;2022-08-19T05:41:29;23.70;99.90
11055;DHT22;5580;50.106;8.702;2022-08-19T05:44:02;23.70;99.90
11055;DHT22;5580;50.106;8.702;2022-08-19T05:46:28;23.70;99.90
11055;DHT22;5580;50.106;8.702;2022-08-19T05:48:54;23.70;99.90
11055;DHT22;5580;50.106;8.702;2022-08-19T05:51:22;23.70;99.90
11055;DHT22;5580;50.106;8.702;2022-08-19T05:53:48;23.70;99.90
11055;DHT22;5580;50.106;8.702;2022-08-19T05:56:16;23.80;99.90
11055;DHT22;5580;50.106;8.702;2022-08-19T05:58:44;23.80;99.90
11055;DHT22;5580;50.106;8.702;2022-08-19T06:01:16;23.80;99.90
11055;DHT22;5580;50.106;8.702;2022-08-19T06:03:42;23.90;99.90
11055;DHT22;5580;50.106;8.702;2022-08-19T06:06:10;23.90;99.90
11055;DHT22;5580;50.106;8.702;2022-08-19T06:08:37;23.90;99.90
11055;DHT22;5580;50.106;8.702;2022-08-19T06:13:43;23.80;99.90
11055;DHT22;5580;50.106;8.702;2022-08-19T06:16:10;23.80;99.90
11055;DHT22;5580;50.106;8.702;2022-08-19T06:18:36;23.80;99.90
11055;DHT22;5580;50.106;8.702;2022-08-19T06:21:02;23.70;99.90
11055;DHT22;5580;50.106;8.702;2022-08-19T06:23:29;23.80;99.90
11055;DHT22;5580;50.106;8.702;2022-08-19T06:25:55;23.80;99.90
11055;DHT22;5580;50.106;8.702;2022-08-19T06:28:21;23.80;99.90
11055;DHT22;5580;50.106;8.702;2022-08-19T06:30:49;23.90;99.90
11055;DHT22;5580;50.106;8.702;2022-08-19T06:33:15;23.90;99.90
11055;DHT22;5580;50.106;8.702;2022-08-19T06:35:41;23.90;99.90
11055;DHT22;5580;50.106;8.702;2022-08-19T06:38:07;24.00;99.90
11055;DHT22;5580;50.106;8.702;2022-08-19T06:40:35;24.10;99.90
11055;DHT22;5580;50.106;8.702;2022-08-19T06:43:01;24.10;99.90
11055;DHT22;5580;50.106;8.702;2022-08-19T06:45:27;24.10;99.90
11055;DHT22;5580;50.106;8.702;2022-08-19T06:47:53;24.10;99.90
11055;DHT22;5580;50.106;8.702;2022-08-19T06:50:24;24.10;99.90
11055;DHT22;5580;50.106;8.702;2022-08-19T06:52:51;24.10;99.90
11055;DHT22;5580;50.106;8.702;2022-08-19T06:55:17;24.00;99.90
11055;DHT22;5580;50.106;8.702;2022-08-19T06:57:43;24.10;99.90
11055;DHT22;5580;50.106;8.702;2022-08-19T07:00:10;24.10;99.90
11055;DHT22;5580;50.106;8.702;2022-08-19T07:02:38;24.10;99.90
11055;DHT22;5580;50.106;8.702;2022-08-19T07:05:05;24.10;99.90
11055;DHT22;5580;50.106;8.702;2022-08-19T07:07:31;24.10;99.90
11055;DHT22;5580;50.106;8.702;2022-08-19T07:09:56;24.10;99.90
11055;DHT22;5580;50.106;8.702;2022-08-19T07:12:22;24.10;99.90
11055;DHT22;5580;50.106;8.702;2022-08-19T07:14:48;24.20;99.90
11055;DHT22;5580;50.106;8.702;2022-08-19T07:17:14;24.20;99.90
11055;DHT22;5580;50.106;8.702;2022-08-19T07:19:40;24.20;99.90
11055;DHT22;5580;50.106;8.702;2022-08-19T07:22:08;24.20;99.90
11055;DHT22;5580;50.106;8.702;2022-08-19T07:24:34;24.30;99.90
11055;DHT22;5580;50.106;8.702;2022-08-19T07:27:02;24.30;99.90
11055;DHT22;5580;50.106;8.702;2022-08-19T07:29:30;24.30;99.90
11055;DHT22;5580;50.106;8.702;2022-08-19T07:31:56;24.30;99.90
11055;DHT22;5580;50.106;8.702;2022-08-19T07:34:25;24.30;99.90
11055;DHT22;5580;50.106;8.702;2022-08-19T07:36:51;24.30;99.90
11055;DHT22;5580;50.106;8.702;2022-08-19T07:39:27;24.30;99.90
11055;DHT22;5580;50.106;8.702;2022-08-19T07:41:53;24.20;99.90
11055;DHT22;5580;50.106;8.702;2022-08-19T07:44:20;24.20;99.90
11055;DHT22;5580;50.106;8.702;2022-08-19T07:46:52;24.30;99.90
11055;DHT22;5580;50.106;8.702;2022-08-19T07:49:18;24.30;99.90
11055;DHT22;5580;50.106;8.702;2022-08-19T07:52:06;24.30;99.90
11055;DHT22;5580;50.106;8.702;2022-08-19T07:54:35;24.40;99.90
11055;DHT22;5580;50.106;8.702;2022-08-19T07:57:02;24.40;99.90
11055;DHT22;5580;50.106;8.702;2022-08-19T07:59:28;24.40;99.90
11055;DHT22;5580;50.106;8.702;2022-08-19T08:01:55;24.50;99.90
11055;DHT22;5580;50.106;8.702;2022-08-19T08:04:21;24.50;99.90
11055;DHT22;5580;50.106;8.702;2022-08-19T08:07:06;24.60;99.90
11055;DHT22;5580;50.106;8.702;2022-08-19T08:09:51;24.70;99.90
11055;DHT22;5580;50.106;8.702;2022-08-19T08:12:27;24.80;99.90
11055;DHT22;5580;50.106;8.702;2022-08-19T08:14:57;24.80;99.90
11055;DHT22;5580;50.106;8.702;2022-08-19T08:17:27;24.90;99.90
11055;DHT22;5580;50.106;8.702;2022-08-19T08:19:53;24.90;99.90
11055;DHT22;5580;50.106;8.702;2022-08-19T08:22:21;25.00;99.90
11055;DHT22;5580;50.106;8.702;2022-08-19T08:25:12;25.10;99.90
11055;DHT22;5580;50.106;8.702;2022-08-19T08:27:39;25.10;99.90
11055;DHT22;5580;50.106;8.702;2022-08-19T08:30:07;25.20;99.90
11055;DHT22;5580;50.106;8.702;2022-08-19T08:32:38;25.10;99.90
11055;DHT22;5580;50.106;8.702;2022-08-19T08:35:10;25.20;99.90
11055;DHT22;5580;50.106;8.702;2022-08-19T08:37:37;25.20;99.90
11055;DHT22;5580;50.106;8.702;2022-08-19T08:40:17;25.20;99.90
11055;DHT22;5580;50.106;8.702;2022-08-19T08:42:50;25.20;99.90
11055;DHT22;5580;50.106;8.702;2022-08-19T08:45:18;25.20;99.90
11055;DHT22;5580;50.106;8.702;2022-08-19T08:47:48;25.30;99.90
11055;DHT22;5580;50.106;8.702;2022-08-19T08:50:21;25.30;99.90
11055;DHT22;5580;50.106;8.702;2022-08-19T08:52:52;25.40;99.90
11055;DHT22;5580;50.106;8.702;2022-08-19T08:55:21;25.50;99.90
11055;DHT22;5580;50.106;8.702;2022-08-19T09:00:20;25.50;99.90
11055;DHT22;5580;50.106;8.702;2022-08-19T09:02:47;25.60;99.90
11055;DHT22;5580;50.106;8.702;2022-08-19T09:05:13;25.60;99.90
11055;DHT22;5580;50.106;8.702;2022-08-19T09:08:02;25.60;99.90
11055;DHT22;5580;50.106;8.702;2022-08-19T09:10:50;25.70;99.90
11055;DHT22;5580;50.106;8.702;2022-08-19T09:13:35;25.80;99.90
11055;DHT22;5580;50.106;8.702;2022-08-19T09:16:19;25.90;99.60
11055;DHT22;5580;50.106;8.702;2022-08-19T09:18:49;25.90;99.20
11055;DHT22;5580;50.106;8.702;2022-08-19T09:21:18;26.00;99.50
11055;DHT22;5580;50.106;8.702;2022-08-19T09:23:44;26.00;99.40
11055;DHT22;5580;50.106;8.702;2022-08-19T09:26:12;26.00;99.20
11055;DHT22;5580;50.106;8.702;2022-08-19T09:28:40;26.00;99.20
11055;DHT22;5580;50.106;8.702;2022-08-19T09:31:10;26.00;99.20
11055;DHT22;5580;50.106;8.702;2022-08-19T09:33:36;26.00;99.40
11055;DHT22;5580;50.106;8.702;2022-08-19T09:36:06;26.00;99.00
11055;DHT22;5580;50.106;8.702;2022-08-19T09:38:34;26.00;98.60
11055;DHT22;5580;50.106;8.702;2022-08-19T09:41:07;26.00;98.40
11055;DHT22;5580;50.106;8.702;2022-08-19T09:43:33;26.00;98.50
11055;DHT22;5580;50.106;8.702;2022-08-19T09:46:03;26.00;98.80
11055;DHT22;5580;50.106;8.702;2022-08-19T09:48:31;26.00;98.70
11055;DHT22;5580;50.106;8.702;2022-08-19T09:51:06;26.00;98.70
11055;DHT22;5580;50.106;8.702;2022-08-19T09:53:34;26.10;98.70
11055;DHT22;5580;50.106;8.702;2022-08-19T09:55:59;26.20;98.90
11055;DHT22;5580;50.106;8.702;2022-08-19T09:58:25;26.20;98.90
11055;DHT22;5580;50.106;8.702;2022-08-19T10:00:54;26.30;98.80
11055;DHT22;5580;50.106;8.702;2022-08-19T10:03:20;26.40;98.90
11055;DHT22;5580;50.106;8.702;2022-08-19T10:05:46;26.30;98.70
11055;DHT22;5580;50.106;8.702;2022-08-19T10:08:23;26.40;98.60
11055;DHT22;5580;50.106;8.702;2022-08-19T10:10:51;26.40;98.50
11055;DHT22;5580;50.106;8.702;2022-08-19T10:13:18;26.30;98.00
11055;DHT22;5580;50.106;8.702;2022-08-19T10:15:48;26.30;98.00
11055;DHT22;5580;50.106;8.702;2022-08-19T10:18:17;26.30;98.10
11055;DHT22;5580;50.106;8.702;2022-08-19T10:20:44;26.30;97.90
11055;DHT22;5580;50.106;8.702;2022-08-19T10:23:11;26.30;97.80
11055;DHT22;5580;50.106;8.702;2022-08-19T10:25:37;26.30;97.90
11055;DHT22;5580;50.106;8.702;2022-08-19T10:28:04;26.40;98.20
11055;DHT22;5580;50.106;8.702;2022-08-19T10:30:31;26.40;97.90
11055;DHT22;5580;50.106;8.702;2022-08-19T10:32:57;26.40;98.10
11055;DHT22;5580;50.106;8.702;2022-08-19T10:35:23;26.40;97.80
11055;DHT22;5580;50.106;8.702;2022-08-19T10:37:49;26.40;97.80
11055;DHT22;5580;50.106;8.702;2022-08-19T10:40:14;26.40;97.40
11055;DHT22;5580;50.106;8.702;2022-08-19T10:42:40;26.50;97.00
11055;DHT22;5580;50.106;8.702;2022-08-19T10:45:06;26.50;97.20
11055;DHT22;5580;50.106;8.702;2022-08-19T10:47:33;26.50;96.90
11055;DHT22;5580;50.106;8.702;2022-08-19T10:49:59;26.50;96.60
11055;DHT22;5580;50.106;8.702;2022-08-19T10:52:49;26.60;96.90
11055;DHT22;5580;50.106;8.702;2022-08-19T10:55:14;26.70;96.60
11055;DHT22;5580;50.106;8.702;2022-08-19T10:57:59;26.70;96.40
11055;DHT22;5580;50.106;8.702;2022-08-19T11:00:25;26.70;96.20
11055;DHT22;5580;50.106;8.702;2022-08-19T11:02:51;26.70;96.10
11055;DHT22;5580;50.106;8.702;2022-08-19T11:05:17;26.70;96.00
11055;DHT22;5580;50.106;8.702;2022-08-19T11:07:44;26.70;95.80
11055;DHT22;5580;50.106;8.702;2022-08-19T11:10:12;26.70;95.90
11055;DHT22;5580;50.106;8.702;2022-08-19T11:12:39;26.70;95.80
11055;DHT22;5580;50.106;8.702;2022-08-19T11:15:08;26.70;96.00
11055;DHT22;5580;50.106;8.702;2022-08-19T11:17:39;26.70;95.80
11055;DHT22;5580;50.106;8.702;2022-08-19T11:20:12;26.80;96.00
11055;DHT22;5580;50.106;8.702;2022-08-19T11:22:39;26.80;95.70
11055;DHT22;5580;50.106;8.702;2022-08-19T11:25:06;26.80;95.50
11055;DHT22;5580;50.106;8.702;2022-08-19T11:27:32;26.80;94.80
11055;DHT22;5580;50.106;8.702;2022-08-19T11:29:57;26.80;94.50
11055;DHT22;5580;50.106;8.702;2022-08-19T11:32:23;26.80;94.30
11055;DHT22;5580;50.106;8.702;2022-08-19T11:34:49;26.90;94.30
11055;DHT22;5580;50.106;8.702;2022-08-19T11:37:15;26.90;94.10
11055;DHT22;5580;50.106;8.702;2022-08-19T11:39:41;26.90;94.20
11055;DHT22;5580;50.106;8.702;2022-08-19T11:42:06;26.90;94.40
11055;DHT22;5580;50.106;8.702;2022-08-19T11:44:53;26.90;94.20
11055;DHT22;5580;50.106;8.702;2022-08-19T11:47:19;26.90;94.40
11055;DHT22;5580;50.106;8.702;2022-08-19T11:49:46;27.00;94.30
11055;DHT22;5580;50.106;8.702;2022-08-19T11:52:12;27.00;94.10
11055;DHT22;5580;50.106;8.702;2022-08-19T11:54:37;26.90;93.70
11055;DHT22;5580;50.106;8.702;2022-08-19T11:57:03;27.00;93.20
11055;DHT22;5580;50.106;8.702;2022-08-19T11:59:29;27.00;93.00
11055;DHT22;5580;50.106;8.702;2022-08-19T12:01:55;26.90;93.00
11055;DHT22;5580;50.106;8.702;2022-08-19T12:04:21;26.90;93.30
11055;DHT22;5580;50.106;8.702;2022-08-19T12:06:47;26.90;93.40
11055;DHT22;5580;50.106;8.702;2022-08-19T12:09:13;27.00;93.60
11055;DHT22;5580;50.106;8.702;2022-08-19T12:11:40;26.90;93.40
11055;DHT22;5580;50.106;8.702;2022-08-19T12:14:08;26.90;93.30
11055;DHT22;5580;50.106;8.702;2022-08-19T12:16:34;26.90;93.50
11055;DHT22;5580;50.106;8.702;2022-08-19T12:19:03;26.90;93.40
11055;DHT22;5580;50.106;8.702;2022-08-19T12:21:30;26.90;92.70
11055;DHT22;5580;50.106;8.702;2022-08-19T12:23:57;26.90;92.10
11055;DHT22;5580;50.106;8.702;2022-08-19T12:26:26;26.90;92.10
11055;DHT22;5580;50.106;8.702;2022-08-19T12:28:52;26.90;92.00
11055;DHT22;5580;50.106;8.702;2022-08-19T12:31:18;26.90;92.00
11055;DHT22;5580;50.106;8.702;2022-08-19T12:33:45;26.90;92.10
11055;DHT22;5580;50.106;8.702;2022-08-19T12:36:13;26.90;91.80
11055;DHT22;5580;50.106;8.702;2022-08-19T12:38:40;27.00;91.70
11055;DHT22;5580;50.106;8.702;2022-08-19T12:41:09;27.00;91.60
11055;DHT22;5580;50.106;8.702;2022-08-19T12:43:35;27.00;91.60
11055;DHT22;5580;50.106;8.702;2022-08-19T12:46:03;27.00;91.40
11055;DHT22;5580;50.106;8.702;2022-08-19T12:48:30;27.00;91.30
11055;DHT22;5580;50.106;8.702;2022-08-19T12:50:55;27.10;91.10
11055;DHT22;5580;50.106;8.702;2022-08-19T12:53:22;27.10;91.40
11055;DHT22;5580;50.106;8.702;2022-08-19T12:55:48;27.00;91.30
11055;DHT22;5580;50.106;8.702;2022-08-19T12:58:21;27.10;90.90
11055;DHT22;5580;50.106;8.702;2022-08-19T13:00:47;27.10;90.80
11055;DHT22;5580;50.106;8.702;2022-08-19T13:03:12;27.10;90.30
11055;DHT22;5580;50.106;8.702;2022-08-19T13:05:38;27.10;90.30
11055;DHT22;5580;50.106;8.702;2022-08-19T13:08:04;27.10;90.30
11055;DHT22;5580;50.106;8.702;2022-08-19T13:10:33;27.10;90.50
11055;DHT22;5580;50.106;8.702;2022-08-19T13:13:05;27.10;90.70
11055;DHT22;5580;50.106;8.702;2022-08-19T13:15:34;27.10;90.60
11055;DHT22;5580;50.106;8.702;2022-08-19T13:18:00;27.10;90.40
11055;DHT22;5580;50.106;8.702;2022-08-19T13:20:28;27.10;90.30
11055;DHT22;5580;50.106;8.702;2022-08-19T13:22:55;27.10;90.10
11055;DHT22;5580;50.106;8.702;2022-08-19T13:25:22;27.10;90.00
11055;DHT22;5580;50.106;8.702;2022-08-19T13:27:48;27.10;89.80
11055;DHT22;5580;50.106;8.702;2022-08-19T13:30:16;27.10;90.10
11055;DHT22;5580;50.106;8.702;2022-08-19T13:33:00;27.10;89.80
11055;DHT22;5580;50.106;8.702;2022-08-19T13:35:49;27.10;89.20
11055;DHT22;5580;50.106;8.702;2022-08-19T13:38:18;27.10;88.60
11055;DHT22;5580;50.106;8.702;2022-08-19T13:40:44;27.10;87.90
11055;DHT22;5580;50.106;8.702;2022-08-19T13:43:10;27.20;88.20
11055;DHT22;5580;50.106;8.702;2022-08-19T13:45:36;27.20;88.10
11055;DHT22;5580;50.106;8.702;2022-08-19T13:48:04;27.20;88.10
11055;DHT22;5580;50.106;8.702;2022-08-19T13:50:41;27.30;88.10
11055;DHT22;5580;50.106;8.702;2022-08-19T13:53:08;27.30;87.40
11055;DHT22;5580;50.106;8.702;2022-08-19T13:55:35;27.30;87.10
11055;DHT22;5580;50.106;8.702;2022-08-19T13:58:02;27.40;87.40
11055;DHT22;5580;50.106;8.702;2022-08-19T14:00:31;27.40;87.30
11055;DHT22;5580;50.106;8.702;2022-08-19T14:02:57;27.40;87.20
11055;DHT22;5580;50.106;8.702;2022-08-19T14:05:25;27.40;87.20
11055;DHT22;5580;50.106;8.702;2022-08-19T14:07:51;27.50;87.40
11055;DHT22;5580;50.106;8.702;2022-08-19T14:10:18;27.50;87.10
11055;DHT22;5580;50.106;8.702;2022-08-19T14:12:44;27.50;86.80
11055;DHT22;5580;50.106;8.702;2022-08-19T14:15:11;27.50;86.40
11055;DHT22;5580;50.106;8.702;2022-08-19T14:17:39;27.50;85.90
11055;DHT22;5580;50.106;8.702;2022-08-19T14:20:06;27.50;85.70
11055;DHT22;5580;50.106;8.702;2022-08-19T14:22:39;27.50;85.70
11055;DHT22;5580;50.106;8.702;2022-08-19T14:25:07;27.60;85.90
11055;DHT22;5580;50.106;8.702;2022-08-19T14:27:38;27.60;86.60
11055;DHT22;5580;50.106;8.702;2022-08-19T14:30:05;27.60;86.00
11055;DHT22;5580;50.106;8.702;2022-08-19T14:32:32;27.60;86.10
11055;DHT22;5580;50.106;8.702;2022-08-19T14:34:58;27.60;85.80
11055;DHT22;5580;50.106;8.702;2022-08-19T14:37:24;27.60;85.40
11055;DHT22;5580;50.106;8.702;2022-08-19T14:39:49;27.60;85.30
11055;DHT22;5580;50.106;8.702;2022-08-19T14:42:15;27.60;85.40
11055;DHT22;5580;50.106;8.702;2022-08-19T14:44:41;27.60;85.40
11055;DHT22;5580;50.106;8.702;2022-08-19T14:47:08;27.60;84.90
11055;DHT22;5580;50.106;8.702;2022-08-19T14:49:34;27.60;83.90
11055;DHT22;5580;50.106;8.702;2022-08-19T14:52:00;27.60;83.80
11055;DHT22;5580;50.106;8.702;2022-08-19T14:54:25;27.60;84.30
11055;DHT22;5580;50.106;8.702;2022-08-19T14:56:52;27.60;84.50
11055;DHT22;5580;50.106;8.702;2022-08-19T14:59:18;27.60;84.20
11055;DHT22;5580;50.106;8.702;2022-08-19T15:01:43;27.60;84.20
11055;DHT22;5580;50.106;8.702;2022-08-19T15:04:09;27.60;83.50
11055;DHT22;5580;50.106;8.702;2022-08-19T15:06:35;27.70;82.90
11055;DHT22;5580;50.106;8.702;2022-08-19T15:09:01;27.70;82.20
11055;DHT22;5580;50.106;8.702;2022-08-19T15:11:28;27.60;82.30
11055;DHT22;5580;50.106;8.702;2022-08-19T15:13:57;27.60;82.50
11055;DHT22;5580;50.106;8.702;2022-08-19T15:16:24;27.70;82.30
11055;DHT22;5580;50.106;8.702;2022-08-19T15:18:55;27.70;81.80
11055;DHT22;5580;50.106;8.702;2022-08-19T15:21:21;27.70;81.60
11055;DHT22;5580;50.106;8.702;2022-08-19T15:23:48;27.70;81.50
11055;DHT22;5580;50.106;8.702;2022-08-19T15:26:15;27.70;80.80
11055;DHT22;5580;50.106;8.702;2022-08-19T15:28:41;27.70;80.90
11055;DHT22;5580;50.106;8.702;2022-08-19T15:31:07;27.70;80.60
11055;DHT22;5580;50.106;8.702;2022-08-19T15:33:35;27.70;80.70
11055;DHT22;5580;50.106;8.702;2022-08-19T15:36:06;27.70;81.10
11055;DHT22;5580;50.106;8.702;2022-08-19T15:38:32;27.80;80.60
11055;DHT22;5580;50.106;8.702;2022-08-19T15:41:00;27.80;80.80
11055;DHT22;5580;50.106;8.702;2022-08-19T15:43:47;27.80;80.40
11055;DHT22;5580;50.106;8.702;2022-08-19T15:46:17;27.80;80.00
11055;DHT22;5580;50.106;8.702;2022-08-19T15:48:43;27.80;79.70
11055;DHT22;5580;50.106;8.702;2022-08-19T15:51:09;27.80;79.50
11055;DHT22;5580;50.106;8.702;2022-08-19T15:53:35;27.80;79.30
11055;DHT22;5580;50.106;8.702;2022-08-19T15:56:00;27.80;79.30
11055;DHT22;5580;50.106;8.702;2022-08-19T15:58:26;27.80;79.30